Time;durP1;ratioP1;P1;durP2;ratioP2;P2;SDS_P1;SDS_P2;PMS_P1;PMS_P2;Temp;Humidity;BMP_temperature;BMP_pressure;BME280_temperature;BME280_humidity;BME280_pressure;Samples;Min_cycle;Max_cycle;Signal;HPM_P1;HPM_P2
2022/01/13 00:02:10;;;;;;;28.57;14.00;;;;;;;;;;5052544;28;20413;-71
2022/01/13 00:04:36;;;;;;;29.70;13.83;;;;;;;;;;5052926;28;20040;-72
2022/01/13 00:07:02;;;;;;;32.63;13.33;;;;;;;;;;5053001;28;20056;-72
2022/01/13 00:09:27;;;;;;;32.03;14.10;;;;;;;;;;5052861;28;20059;-71
2022/01/13 00:11:55;;;;;;;35.07;14.20;;;;;;;;;;5051938;28;20032;-72
2022/01/13 00:14:26;;;;;;;29.27;13.70;;;;;;;;;;5051637;28;20037;-70
2022/01/13 00:19:34;;;;;;;24.57;12.47;;;;;;;;;;5052888;28;20090;-72
2022/01/13 00:22:18;;;;;;;31.30;13.07;;;;;;;;;;5051384;28;20511;-72
2022/01/13 00:24:47;;;;;;;28.17;13.90;;;;;;;;;;5047670;28;20025;-69
2022/01/13 00:27:14;;;;;;;27.10;12.77;;;;;;;;;;5046718;28;20029;-70
2022/01/13 00:29:43;;;;;;;25.10;13.03;;;;;;;;;;5050927;28;20029;-71
2022/01/13 00:32:10;;;;;;;28.53;13.57;;;;;;;;;;5050953;28;20373;-70
2022/01/13 00:34:35;;;;;;;28.50;13.67;;;;;;;;;;5052047;28;20025;-71
2022/01/13 00:37:01;;;;;;;26.43;12.93;;;;;;;;;;5050710;28;20447;-71
2022/01/13 00:39:26;;;;;;;33.27;14.77;;;;;;;;;;5052499;28;20451;-71
2022/01/13 00:41:53;;;;;;;27.27;13.10;;;;;;;;;;5050358;28;20059;-71
2022/01/13 00:44:22;;;;;;;32.70;13.27;;;;;;;;;;5052093;28;20036;-71
2022/01/13 00:46:59;;;;;;;32.03;13.00;;;;;;;;;;5047204;28;20389;-72
2022/01/13 00:49:25;;;;;;;25.77;12.43;;;;;;;;;;5052324;28;20036;-73
2022/01/13 00:51:51;;;;;;;32.97;14.60;;;;;;;;;;5051294;28;20466;-72
2022/01/13 00:54:17;;;;;;;26.57;12.00;;;;;;;;;;5051785;28;20089;-72
2022/01/13 00:56:42;;;;;;;28.57;13.93;;;;;;;;;;5051807;28;20029;-72
2022/01/13 00:59:11;;;;;;;25.13;12.03;;;;;;;;;;5034318;28;20064;-70
2022/01/13 01:01:39;;;;;;;29.20;14.07;;;;;;;;;;5049857;28;20124;-71
2022/01/13 01:04:06;;;;;;;37.40;14.30;;;;;;;;;;5050863;28;20500;-70
2022/01/13 01:06:32;;;;;;;26.63;12.97;;;;;;;;;;5050252;28;20074;-73
2022/01/13 01:08:58;;;;;;;33.87;13.60;;;;;;;;;;5051673;28;20041;-70
2022/01/13 01:11:26;;;;;;;23.40;13.37;;;;;;;;;;5050515;28;20037;-71
2022/01/13 01:13:56;;;;;;;29.30;14.13;;;;;;;;;;5049849;28;20457;-71
2022/01/13 01:16:22;;;;;;;31.20;14.77;;;;;;;;;;5050803;28;20036;-70
2022/01/13 01:19:02;;;;;;;35.37;13.67;;;;;;;;;;5049150;28;20163;-72
2022/01/13 01:31:50;;;;;;;25.80;12.37;;;;;;;;;;5050974;28;20033;-71
2022/01/13 01:37:06;;;;;;;28.60;12.47;;;;;;;;;;5046627;28;20044;-70
2022/01/13 01:39:31;;;;;;;30.93;12.70;;;;;;;;;;5049948;28;20377;-71
2022/01/13 01:41:57;;;;;;;29.27;13.70;;;;;;;;;;5046224;28;20048;-72
2022/01/13 01:44:36;;;;;;;27.80;12.20;;;;;;;;;;5046714;28;20059;-74
2022/01/13 01:47:03;;;;;;;25.97;12.90;;;;;;;;;;5054859;28;20028;-73
2022/01/13 01:49:31;;;;;;;28.53;11.43;;;;;;;;;;5051668;28;20033;-73
2022/01/13 01:51:59;;;;;;;43.00;15.33;;;;;;;;;;5049931;28;20033;-73
2022/01/13 01:54:26;;;;;;;22.17;12.20;;;;;;;;;;5050972;28;20111;-72
2022/01/13 01:56:52;;;;;;;25.73;11.77;;;;;;;;;;5050527;28;20024;-73
2022/01/13 01:59:25;;;;;;;25.67;12.40;;;;;;;;;;5049836;28;20025;-71
2022/01/13 02:01:52;;;;;;;28.73;13.37;;;;;;;;;;5032979;28;20032;-71
2022/01/13 02:04:18;;;;;;;27.80;12.17;;;;;;;;;;5050420;28;20036;-73
2022/01/13 02:06:44;;;;;;;25.40;11.97;;;;;;;;;;5049130;28;20025;-72
2022/01/13 02:09:11;;;;;;;23.90;10.83;;;;;;;;;;5050591;28;20413;-72
2022/01/13 02:11:45;;;;;;;24.93;11.13;;;;;;;;;;5049083;28;20024;-72
2022/01/13 02:16:52;;;;;;;30.67;11.87;;;;;;;;;;5045826;28;20029;-72
2022/01/13 02:19:18;;;;;;;27.20;12.87;;;;;;;;;;5050292;28;20044;-72
2022/01/13 02:21:43;;;;;;;24.93;12.07;;;;;;;;;;5048833;28;20482;-71
2022/01/13 02:24:09;;;;;;;30.00;12.00;;;;;;;;;;5050067;28;20036;-71
2022/01/13 02:26:35;;;;;;;26.60;12.87;;;;;;;;;;5049919;28;20017;-70
2022/01/13 02:29:00;;;;;;;25.60;11.70;;;;;;;;;;5050537;28;20025;-72
2022/01/13 02:31:27;;;;;;;30.13;13.50;;;;;;;;;;5050015;28;20037;-73
2022/01/13 02:33:54;;;;;;;23.60;11.67;;;;;;;;;;5043380;28;20481;-73
2022/01/13 02:36:21;;;;;;;22.77;11.80;;;;;;;;;;5049031;28;20033;-72
2022/01/13 02:38:48;;;;;;;28.13;11.90;;;;;;;;;;5041696;28;20063;-71
2022/01/13 02:41:14;;;;;;;26.77;12.07;;;;;;;;;;5043053;28;20464;-72
2022/01/13 02:43:39;;;;;;;28.57;14.40;;;;;;;;;;5049710;28;20029;-71
2022/01/13 02:46:43;;;;;;;26.17;13.17;;;;;;;;;;5048153;28;20036;-72
2022/01/13 02:49:15;;;;;;;27.60;13.23;;;;;;;;;;5048876;28;20473;-70
2022/01/13 02:51:43;;;;;;;28.60;12.60;;;;;;;;;;5049314;28;20036;-71
2022/01/13 02:54:09;;;;;;;31.93;13.50;;;;;;;;;;5049458;28;20397;-71
2022/01/13 02:56:37;;;;;;;26.63;12.20;;;;;;;;;;5048153;28;20071;-72
2022/01/13 02:59:03;;;;;;;31.77;13.10;;;;;;;;;;5031954;28;20039;-70
2022/01/13 03:01:28;;;;;;;30.20;12.87;;;;;;;;;;5048954;28;20032;-72
2022/01/13 03:03:54;;;;;;;26.73;13.07;;;;;;;;;;5047967;28;20040;-72
2022/01/13 03:06:27;;;;;;;25.07;11.63;;;;;;;;;;5048038;28;20035;-71
2022/01/13 03:08:54;;;;;;;29.83;13.70;;;;;;;;;;5047804;28;20021;-72
2022/01/13 03:11:23;;;;;;;24.47;12.30;;;;;;;;;;5048223;28;20090;-72
2022/01/13 03:13:49;;;;;;;29.87;12.63;;;;;;;;;;5048955;28;20127;-70
2022/01/13 03:16:15;;;;;;;24.50;11.87;;;;;;;;;;5048790;28;20108;-72
2022/01/13 03:18:41;;;;;;;23.90;11.43;;;;;;;;;;5048063;28;20330;-72
2022/01/13 03:21:07;;;;;;;31.47;14.27;;;;;;;;;;5048024;28;20039;-71
2022/01/13 03:23:35;;;;;;;29.43;12.83;;;;;;;;;;5048022;28;20044;-72
2022/01/13 03:26:01;;;;;;;26.13;12.03;;;;;;;;;;5047924;28;20224;-71
2022/01/13 03:28:31;;;;;;;27.33;12.83;;;;;;;;;;5048903;28;20029;-71
2022/01/13 03:31:00;;;;;;;32.50;11.60;;;;;;;;;;5042142;28;20059;-72
2022/01/13 03:33:27;;;;;;;31.27;12.97;;;;;;;;;;5044183;28;20107;-74
2022/01/13 03:35:54;;;;;;;30.33;12.47;;;;;;;;;;5049240;28;20499;-75
2022/01/13 03:38:20;;;;;;;31.33;12.97;;;;;;;;;;5048976;28;20078;-74
2022/01/13 03:40:45;;;;;;;29.57;13.17;;;;;;;;;;5048947;28;20048;-74
2022/01/13 03:43:11;;;;;;;29.27;12.90;;;;;;;;;;5049108;28;20032;-74
2022/01/13 03:45:37;;;;;;;25.40;11.33;;;;;;;;;;5048898;28;20071;-74
2022/01/13 03:48:03;;;;;;;33.20;12.67;;;;;;;;;;5047775;28;20032;-74
2022/01/13 03:50:29;;;;;;;25.70;12.83;;;;;;;;;;5047646;28;20051;-74
2022/01/13 03:53:01;;;;;;;30.30;12.90;;;;;;;;;;5049771;28;20079;-75
2022/01/13 03:55:36;;;;;;;24.08;11.40;;;;;;;;;;5048711;28;20132;-74
2022/01/13 03:58:23;;;;;;;22.17;11.50;;;;;;;;;;5047166;28;20051;-74
2022/01/13 04:01:07;;;;;;;29.87;11.93;;;;;;;;;;5047485;28;20056;-74
2022/01/13 04:03:33;;;;;;;28.53;13.43;;;;;;;;;;5043356;28;20376;-74
2022/01/13 04:06:16;;;;;;;24.83;12.10;;;;;;;;;;5049673;28;20029;-74
2022/01/13 04:08:42;;;;;;;26.17;11.53;;;;;;;;;;5050299;28;20321;-73
2022/01/13 04:11:14;;;;;;;26.70;12.60;;;;;;;;;;5049354;28;20505;-74
2022/01/13 04:16:18;;;;;;;23.80;11.57;;;;;;;;;;5046669;28;20461;-75
2022/01/13 04:18:46;;;;;;;31.80;13.17;;;;;;;;;;5048612;28;20025;-74
2022/01/13 04:21:12;;;;;;;28.73;13.10;;;;;;;;;;5047049;28;20056;-73
2022/01/13 04:23:38;;;;;;;29.73;12.60;;;;;;;;;;5048801;28;20099;-74
2022/01/13 04:26:07;;;;;;;33.73;12.63;;;;;;;;;;5048755;28;20029;-74
2022/01/13 04:28:34;;;;;;;24.73;11.13;;;;;;;;;;5047540;28;20033;-74
2022/01/13 04:31:02;;;;;;;31.10;13.00;;;;;;;;;;5047355;28;20358;-74
2022/01/13 04:33:30;;;;;;;26.47;12.80;;;;;;;;;;5048748;28;20048;-74
2022/01/13 04:35:56;;;;;;;26.13;11.77;;;;;;;;;;5048251;28;20013;-75
2022/01/13 04:38:21;;;;;;;29.07;11.83;;;;;;;;;;5049714;28;20035;-76
2022/01/13 04:40:54;;;;;;;26.33;11.40;;;;;;;;;;5050748;28;20061;-76
2022/01/13 04:43:20;;;;;;;26.47;11.13;;;;;;;;;;5052452;28;20033;-74
2022/01/13 04:45:47;;;;;;;21.57;11.03;;;;;;;;;;5050410;28;20056;-73
2022/01/13 04:48:13;;;;;;;25.53;11.80;;;;;;;;;;5038925;28;20029;-74
2022/01/13 04:50:39;;;;;;;27.27;11.93;;;;;;;;;;5045553;28;20031;-75
2022/01/13 04:53:05;;;;;;;26.73;12.67;;;;;;;;;;5053283;28;20081;-74
2022/01/13 04:55:34;;;;;;;22.27;12.30;;;;;;;;;;5050822;28;20067;-74
2022/01/13 04:58:01;;;;;;;25.03;11.00;;;;;;;;;;5050360;28;20037;-74
2022/01/13 05:00:28;;;;;;;27.83;12.03;;;;;;;;;;5052008;28;20056;-74
2022/01/13 05:02:54;;;;;;;22.57;11.73;;;;;;;;;;5045153;28;20501;-74
2022/01/13 05:05:21;;;;;;;22.83;12.23;;;;;;;;;;5051855;28;20059;-75
2022/01/13 05:07:47;;;;;;;25.50;12.07;;;;;;;;;;5045047;28;20046;-75
2022/01/13 05:10:13;;;;;;;26.43;12.07;;;;;;;;;;5050468;28;20495;-74
2022/01/13 05:12:44;;;;;;;30.07;13.00;;;;;;;;;;5050394;28;20020;-74
2022/01/13 05:15:18;;;;;;;25.53;12.27;;;;;;;;;;5044915;28;20548;-74
2022/01/13 05:20:16;;;;;;;23.83;12.20;;;;;;;;;;5051930;28;20036;-74
2022/01/13 05:22:43;;;;;;;27.03;12.83;;;;;;;;;;5051399;28;20031;-75
2022/01/13 05:25:09;;;;;;;22.50;11.27;;;;;;;;;;5051557;28;20035;-74
2022/01/13 05:27:35;;;;;;;27.43;12.50;;;;;;;;;;5051644;28;20110;-74
2022/01/13 05:30:03;;;;;;;25.60;13.50;;;;;;;;;;5051352;28;20545;-73
2022/01/13 05:32:28;;;;;;;25.60;11.90;;;;;;;;;;5046250;28;20033;-74
2022/01/13 05:34:54;;;;;;;25.20;13.17;;;;;;;;;;5051086;28;20040;-73
2022/01/13 05:37:19;;;;;;;23.43;10.80;;;;;;;;;;5051258;28;20021;-73
2022/01/13 05:39:45;;;;;;;27.77;13.50;;;;;;;;;;5051200;28;20048;-74
2022/01/13 05:42:10;;;;;;;30.23;13.73;;;;;;;;;;5050709;28;20404;-74
2022/01/13 05:44:39;;;;;;;23.73;11.80;;;;;;;;;;5051122;28;20043;-74
2022/01/13 05:47:06;;;;;;;26.43;12.57;;;;;;;;;;5049297;28;20025;-77
2022/01/13 05:49:32;;;;;;;27.43;13.10;;;;;;;;;;5050783;28;20040;-76
2022/01/13 05:51:57;;;;;;;25.23;12.30;;;;;;;;;;5051058;28;20036;-74
2022/01/13 05:54:23;;;;;;;24.73;10.63;;;;;;;;;;5051199;28;20039;-74
2022/01/13 05:56:48;;;;;;;25.47;12.27;;;;;;;;;;5050835;28;20469;-75
2022/01/13 05:59:14;;;;;;;25.20;12.83;;;;;;;;;;5051188;28;20109;-74
2022/01/13 06:01:39;;;;;;;25.40;11.13;;;;;;;;;;5052437;28;20075;-74
2022/01/13 06:04:05;;;;;;;23.70;12.17;;;;;;;;;;5051948;28;20032;-74
2022/01/13 06:06:30;;;;;;;24.60;11.77;;;;;;;;;;5050821;28;20032;-74
2022/01/13 06:08:56;;;;;;;21.77;10.77;;;;;;;;;;5050662;28;20025;-75
2022/01/13 06:11:23;;;;;;;27.67;11.63;;;;;;;;;;5052076;28;20123;-76
2022/01/13 06:13:49;;;;;;;23.83;12.07;;;;;;;;;;5050784;28;20120;-75
2022/01/13 06:16:15;;;;;;;30.00;13.50;;;;;;;;;;5050802;28;20132;-75
2022/01/13 06:18:41;;;;;;;24.67;10.90;;;;;;;;;;5050424;28;20032;-74
2022/01/13 06:21:06;;;;;;;23.67;11.53;;;;;;;;;;5049931;28;20555;-74
2022/01/13 06:23:32;;;;;;;26.60;11.43;;;;;;;;;;5049166;28;20299;-75
2022/01/13 06:25:58;;;;;;;28.50;11.93;;;;;;;;;;5042322;28;20144;-76
2022/01/13 06:28:24;;;;;;;23.87;11.73;;;;;;;;;;5039244;28;20048;-74
2022/01/13 06:30:49;;;;;;;25.67;11.83;;;;;;;;;;5049796;28;20029;-76
2022/01/13 06:33:15;;;;;;;24.23;11.90;;;;;;;;;;5049924;28;20095;-74
2022/01/13 06:35:40;;;;;;;25.37;12.53;;;;;;;;;;5050245;28;20185;-74
2022/01/13 06:38:06;;;;;;;24.20;12.33;;;;;;;;;;5048843;28;20467;-75
2022/01/13 06:40:32;;;;;;;24.27;11.20;;;;;;;;;;5049852;28;20469;-75
2022/01/13 06:42:59;;;;;;;24.50;11.17;;;;;;;;;;5049758;28;20075;-76
2022/01/13 06:45:25;;;;;;;22.17;11.10;;;;;;;;;;5050898;28;20033;-74
2022/01/13 06:47:50;;;;;;;30.23;11.97;;;;;;;;;;5051497;28;20450;-74
2022/01/13 06:50:17;;;;;;;24.97;11.47;;;;;;;;;;5051138;28;20255;-74
2022/01/13 06:52:44;;;;;;;23.40;10.37;;;;;;;;;;5053275;28;20128;-75
2022/01/13 06:55:10;;;;;;;29.03;13.53;;;;;;;;;;5052791;28;20035;-73
2022/01/13 06:57:35;;;;;;;24.67;11.80;;;;;;;;;;5050512;28;20021;-74
2022/01/13 07:00:02;;;;;;;25.30;10.77;;;;;;;;;;5049061;28;20400;-74
2022/01/13 07:02:29;;;;;;;24.23;11.70;;;;;;;;;;5046678;28;20086;-74
2022/01/13 07:04:56;;;;;;;24.83;10.47;;;;;;;;;;5047070;28;20028;-75
2022/01/13 07:07:21;;;;;;;20.80;10.17;;;;;;;;;;5048542;28;20028;-75
2022/01/13 07:09:47;;;;;;;21.97;11.00;;;;;;;;;;5044166;28;20109;-73
2022/01/13 07:12:12;;;;;;;26.13;10.53;;;;;;;;;;5044757;28;20033;-73
2022/01/13 07:14:38;;;;;;;19.87;10.97;;;;;;;;;;5039258;28;20029;-73
2022/01/13 07:17:04;;;;;;;22.97;9.57;;;;;;;;;;5046815;28;20052;-74
2022/01/13 07:19:30;;;;;;;22.20;11.13;;;;;;;;;;5048750;28;20068;-75
2022/01/13 07:21:56;;;;;;;20.33;10.57;;;;;;;;;;5046824;28;20045;-75
2022/01/13 07:24:22;;;;;;;19.57;10.43;;;;;;;;;;5047929;28;20035;-75
2022/01/13 07:26:48;;;;;;;22.67;11.37;;;;;;;;;;5046901;28;20392;-75
2022/01/13 07:29:13;;;;;;;15.93;8.60;;;;;;;;;;5048327;28;20040;-74
2022/01/13 07:31:40;;;;;;;22.73;10.40;;;;;;;;;;5046891;28;20028;-74
2022/01/13 07:34:06;;;;;;;24.27;10.87;;;;;;;;;;5048520;28;20541;-74
2022/01/13 07:36:32;;;;;;;20.17;9.30;;;;;;;;;;5048194;28;20033;-75
2022/01/13 07:38:57;;;;;;;20.93;10.03;;;;;;;;;;5047121;28;20094;-75
2022/01/13 07:41:23;;;;;;;19.20;9.33;;;;;;;;;;5046510;28;20517;-74
2022/01/13 07:43:54;;;;;;;19.87;9.17;;;;;;;;;;5045938;28;20040;-75
2022/01/13 07:46:20;;;;;;;20.07;9.77;;;;;;;;;;5048671;28;20032;-75
2022/01/13 07:48:46;;;;;;;18.33;9.60;;;;;;;;;;5029373;28;20044;-74
2022/01/13 07:51:12;;;;;;;19.23;9.80;;;;;;;;;;5047507;28;20033;-75
2022/01/13 07:53:37;;;;;;;17.97;9.77;;;;;;;;;;5042282;28;20033;-73
2022/01/13 07:56:03;;;;;;;22.17;10.83;;;;;;;;;;5038963;28;20037;-75
2022/01/13 07:58:29;;;;;;;19.20;10.00;;;;;;;;;;5039569;28;20408;-73
2022/01/13 08:00:54;;;;;;;19.33;8.80;;;;;;;;;;5041497;28;20120;-73
2022/01/13 08:03:20;;;;;;;19.23;9.63;;;;;;;;;;5038517;28;20516;-74
2022/01/13 08:05:45;;;;;;;18.50;9.37;;;;;;;;;;5039623;28;20041;-75
2022/01/13 08:08:11;;;;;;;24.17;11.47;;;;;;;;;;5040824;28;20021;-74
2022/01/13 08:10:36;;;;;;;17.07;9.17;;;;;;;;;;5044473;28;20422;-74
2022/01/13 08:13:05;;;;;;;14.00;8.47;;;;;;;;;;5044442;28;20040;-74
2022/01/13 08:15:31;;;;;;;22.57;10.93;;;;;;;;;;5042899;28;20033;-74
2022/01/13 08:20:40;;;;;;;22.30;9.97;;;;;;;;;;5045023;28;20492;-73
2022/01/13 08:23:09;;;;;;;19.67;10.07;;;;;;;;;;5045489;28;20357;-74
2022/01/13 08:25:34;;;;;;;23.93;10.40;;;;;;;;;;5043718;28;20048;-75
2022/01/13 08:28:00;;;;;;;22.83;10.37;;;;;;;;;;5043723;28;20037;-76
2022/01/13 08:30:25;;;;;;;18.70;9.97;;;;;;;;;;5044763;28;20036;-74
2022/01/13 08:32:51;;;;;;;19.27;9.23;;;;;;;;;;5044478;28;20374;-74
2022/01/13 08:35:17;;;;;;;18.33;8.73;;;;;;;;;;5042025;28;20404;-75
2022/01/13 08:37:43;;;;;;;17.90;8.63;;;;;;;;;;5042790;28;20107;-74
2022/01/13 08:40:12;;;;;;;19.53;9.03;;;;;;;;;;5044209;28;20081;-74
2022/01/13 08:42:39;;;;;;;16.33;9.03;;;;;;;;;;5042968;28;20378;-74
2022/01/13 08:45:07;;;;;;;20.40;10.57;;;;;;;;;;5040855;28;20055;-75
2022/01/13 08:47:32;;;;;;;20.87;10.87;;;;;;;;;;5045137;28;20031;-75
2022/01/13 08:49:58;;;;;;;21.53;9.67;;;;;;;;;;5045239;28;20032;-74
2022/01/13 08:52:24;;;;;;;15.87;8.80;;;;;;;;;;5043314;28;20461;-74
2022/01/13 08:54:51;;;;;;;17.17;8.73;;;;;;;;;;5042678;28;20139;-75
2022/01/13 08:57:22;;;;;;;21.40;8.40;;;;;;;;;;5044359;28;20136;-76
2022/01/13 08:59:48;;;;;;;19.17;9.37;;;;;;;;;;5026495;28;20527;-74
2022/01/13 09:02:13;;;;;;;21.00;9.60;;;;;;;;;;5042975;28;20033;-74
2022/01/13 09:04:40;;;;;;;20.73;10.97;;;;;;;;;;5040566;28;20040;-75
2022/01/13 09:07:05;;;;;;;18.90;9.33;;;;;;;;;;5041543;28;20067;-75
2022/01/13 09:09:31;;;;;;;21.37;10.77;;;;;;;;;;5043371;28;20464;-75
2022/01/13 09:11:56;;;;;;;16.87;9.47;;;;;;;;;;5044799;28;20064;-75
2022/01/13 09:14:25;;;;;;;19.53;9.70;;;;;;;;;;5040559;28;20061;-75
2022/01/13 09:16:53;;;;;;;19.93;10.07;;;;;;;;;;5044132;28;20029;-75
2022/01/13 09:19:19;;;;;;;19.80;10.73;;;;;;;;;;5042775;28;20033;-75
2022/01/13 09:21:46;;;;;;;20.70;9.90;;;;;;;;;;5044225;28;20029;-74
2022/01/13 09:24:23;;;;;;;21.00;10.73;;;;;;;;;;5041302;28;20404;-75
2022/01/13 09:26:49;;;;;;;16.67;8.67;;;;;;;;;;5041394;28;20120;-75
2022/01/13 09:29:15;;;;;;;17.80;9.07;;;;;;;;;;5041271;28;20063;-75
2022/01/13 09:31:42;;;;;;;20.30;10.43;;;;;;;;;;5042263;28;20036;-74
2022/01/13 09:34:09;;;;;;;20.83;10.00;;;;;;;;;;5041380;28;20041;-73
2022/01/13 09:36:35;;;;;;;22.83;10.73;;;;;;;;;;5042491;28;20071;-75
2022/01/13 09:39:03;;;;;;;20.50;9.60;;;;;;;;;;5043565;28;20123;-75
2022/01/13 09:41:31;;;;;;;19.63;10.37;;;;;;;;;;5040688;28;20093;-74
2022/01/13 09:44:00;;;;;;;19.60;10.07;;;;;;;;;;5041413;28;20287;-74
2022/01/13 09:46:27;;;;;;;22.37;10.90;;;;;;;;;;5039967;28;20027;-75
2022/01/13 09:48:55;;;;;;;22.77;10.50;;;;;;;;;;5043983;28;20102;-76
2022/01/13 09:51:27;;;;;;;20.13;10.00;;;;;;;;;;5043118;28;20118;-77
2022/01/13 09:53:52;;;;;;;19.63;10.17;;;;;;;;;;5044249;28;20108;-75
2022/01/13 09:56:18;;;;;;;19.23;9.83;;;;;;;;;;5038817;28;20051;-75
2022/01/13 09:58:44;;;;;;;20.93;9.93;;;;;;;;;;5043891;28;20025;-73
2022/01/13 10:01:11;;;;;;;17.63;8.53;;;;;;;;;;5044230;28;20393;-73
2022/01/13 10:03:38;;;;;;;20.10;10.20;;;;;;;;;;5041978;28;20033;-77
2022/01/13 10:06:10;;;;;;;17.90;9.47;;;;;;;;;;5038973;28;20029;-76
2022/01/13 10:08:45;;;;;;;20.00;10.00;;;;;;;;;;5044926;28;20029;-74
2022/01/13 10:11:39;;;;;;;22.17;9.87;;;;;;;;;;5043184;28;20500;-75
2022/01/13 10:16:49;;;;;;;21.30;10.80;;;;;;;;;;5039773;28;20036;-77
2022/01/13 10:19:34;;;;;;;20.10;10.38;;;;;;;;;;5045037;28;20043;-76
2022/01/13 10:22:04;;;;;;;17.23;9.10;;;;;;;;;;5043060;28;20128;-78
2022/01/13 10:24:34;;;;;;;18.57;9.17;;;;;;;;;;5039470;28;20112;-75
2022/01/13 10:27:11;;;;;;;25.27;9.80;;;;;;;;;;5031536;28;20033;-75
2022/01/13 10:29:52;;;;;;;17.13;9.50;;;;;;;;;;5039077;28;20033;-76
2022/01/13 10:32:24;;;;;;;19.70;9.02;;;;;;;;;;5041745;28;20029;-76
2022/01/13 10:35:03;;;;;;;22.48;9.50;;;;;;;;;;5040192;28;20083;-74
2022/01/13 10:37:40;;;;;;;19.97;9.57;;;;;;;;;;5043316;28;20039;-75
2022/01/13 10:40:10;;;;;;;24.13;10.37;;;;;;;;;;5041835;28;20033;-72
2022/01/13 10:45:26;;;;;;;20.13;9.95;;;;;;;;;;5039976;28;20056;-77
2022/01/13 10:47:57;;;;;;;20.23;9.27;;;;;;;;;;5041666;28;20040;-75
2022/01/13 10:50:36;;;;;;;19.97;8.37;;;;;;;;;;5040764;28;20068;-77
2022/01/13 10:53:08;;;;;;;24.63;9.37;;;;;;;;;;5042371;28;20086;-76
2022/01/13 10:55:39;;;;;;;21.77;9.87;;;;;;;;;;5040868;28;20052;-75
2022/01/13 10:58:07;;;;;;;18.20;9.50;;;;;;;;;;5040222;28;20066;-76
2022/01/13 11:00:34;;;;;;;17.57;10.40;;;;;;;;;;5042133;28;20060;-74
2022/01/13 11:03:08;;;;;;;19.83;10.03;;;;;;;;;;5040777;28;20028;-76
2022/01/13 11:05:44;;;;;;;18.13;8.17;;;;;;;;;;5037250;28;20036;-74
2022/01/13 11:08:10;;;;;;;22.30;8.87;;;;;;;;;;5040992;28;20079;-74
2022/01/13 11:10:37;;;;;;;19.93;9.37;;;;;;;;;;5042527;28;20028;-76
2022/01/13 11:13:05;;;;;;;18.60;9.23;;;;;;;;;;5039533;28;20367;-76
2022/01/13 11:15:31;;;;;;;17.63;8.47;;;;;;;;;;5037480;28;20040;-77
2022/01/13 11:18:02;;;;;;;18.07;8.37;;;;;;;;;;5041092;28;20118;-74
2022/01/13 11:20:29;;;;;;;20.23;8.73;;;;;;;;;;5044008;28;20477;-74
2022/01/13 11:22:57;;;;;;;17.93;9.57;;;;;;;;;;5072512;28;20090;-77
2022/01/13 11:25:26;;;;;;;18.17;9.20;;;;;;;;;;5040852;28;20033;-76
2022/01/13 11:27:55;;;;;;;15.27;8.93;;;;;;;;;;5045826;28;20048;-75
2022/01/13 11:30:25;;;;;;;15.60;8.03;;;;;;;;;;5042188;28;20041;-78
2022/01/13 11:32:53;;;;;;;19.30;9.77;;;;;;;;;;5042212;28;20029;-75
2022/01/13 11:35:30;;;;;;;17.53;9.20;;;;;;;;;;5024036;28;20033;-75
2022/01/13 11:37:57;;;;;;;17.00;9.23;;;;;;;;;;5044223;28;20033;-77
2022/01/13 11:40:28;;;;;;;21.63;10.07;;;;;;;;;;5046318;28;20126;-75
2022/01/13 11:42:59;;;;;;;18.17;8.45;;;;;;;;;;5043421;28;20122;-76
2022/01/13 11:45:25;;;;;;;16.90;8.97;;;;;;;;;;5036088;28;20053;-76
2022/01/13 11:48:11;;;;;;;16.23;8.73;;;;;;;;;;5040793;28;20052;-77
2022/01/13 11:50:51;;;;;;;14.70;8.90;;;;;;;;;;5041642;28;20292;-75
2022/01/13 11:53:22;;;;;;;18.63;9.30;;;;;;;;;;5042685;28;20032;-75
2022/01/13 11:56:00;;;;;;;19.27;9.03;;;;;;;;;;5038653;28;20453;-77
2022/01/13 11:58:31;;;;;;;16.10;8.80;;;;;;;;;;5042503;28;20123;-75
2022/01/13 12:01:16;;;;;;;16.93;8.53;;;;;;;;;;5044590;28;20045;-74
2022/01/13 12:03:42;;;;;;;20.43;8.87;;;;;;;;;;5042582;28;20685;-76
2022/01/13 12:06:08;;;;;;;18.23;8.57;;;;;;;;;;5039050;28;20083;-76
2022/01/13 12:08:48;;;;;;;14.53;7.93;;;;;;;;;;5040976;28;20032;-75
2022/01/13 12:11:45;;;;;;;14.07;8.13;;;;;;;;;;5040214;28;20033;-76
2022/01/13 12:14:30;;;;;;;17.90;8.83;;;;;;;;;;5036278;28;20131;-75
2022/01/13 12:16:58;;;;;;;16.17;8.77;;;;;;;;;;5039669;28;20045;-76
2022/01/13 12:19:46;;;;;;;20.20;9.20;;;;;;;;;;5043580;28;20043;-76
2022/01/13 12:22:20;;;;;;;14.20;8.33;;;;;;;;;;5040032;28;20056;-76
2022/01/13 12:25:00;;;;;;;14.07;7.07;;;;;;;;;;5040166;28;20036;-75
2022/01/13 12:27:44;;;;;;;17.37;8.17;;;;;;;;;;5045428;28;20036;-74
2022/01/13 12:30:13;;;;;;;20.27;8.93;;;;;;;;;;5041359;28;20036;-74
2022/01/13 12:32:43;;;;;;;15.97;9.23;;;;;;;;;;5044654;28;20033;-74
2022/01/13 12:35:11;;;;;;;19.60;8.67;;;;;;;;;;5042280;28;20059;-76
2022/01/13 12:37:39;;;;;;;18.30;9.83;;;;;;;;;;5042501;28;20399;-76
2022/01/13 12:40:24;;;;;;;17.80;8.87;;;;;;;;;;5041360;28;20064;-76
2022/01/13 12:42:53;;;;;;;18.60;8.83;;;;;;;;;;5039900;28;20057;-76
2022/01/13 12:45:28;;;;;;;16.67;9.33;;;;;;;;;;5037809;28;20527;-77
2022/01/13 12:48:03;;;;;;;18.33;10.60;;;;;;;;;;5041539;28;20025;-77
2022/01/13 12:50:32;;;;;;;18.40;10.03;;;;;;;;;;5043546;28;20037;-76
2022/01/13 12:53:19;;;;;;;16.13;8.60;;;;;;;;;;5039554;28;20033;-77
2022/01/13 12:56:04;;;;;;;19.70;9.73;;;;;;;;;;5036353;28;20040;-75
2022/01/13 12:58:39;;;;;;;22.13;10.27;;;;;;;;;;5040757;28;20028;-75
2022/01/13 13:01:09;;;;;;;17.90;9.43;;;;;;;;;;5041629;28;20035;-75
2022/01/13 13:03:35;;;;;;;23.20;10.27;;;;;;;;;;5038514;28;20032;-75
2022/01/13 13:06:08;;;;;;;16.07;9.27;;;;;;;;;;5039667;28;20032;-76
2022/01/13 13:08:34;;;;;;;20.90;10.17;;;;;;;;;;5042822;28;20571;-78
2022/01/13 13:11:01;;;;;;;17.07;7.43;;;;;;;;;;5042446;28;20053;-74
2022/01/13 13:13:28;;;;;;;20.10;9.50;;;;;;;;;;5041207;28;20809;-77
2022/01/13 13:16:01;;;;;;;18.57;9.53;;;;;;;;;;5040960;28;20472;-76
2022/01/13 13:18:29;;;;;;;18.80;9.60;;;;;;;;;;5059150;28;20056;-74
2022/01/13 13:20:56;;;;;;;20.40;9.57;;;;;;;;;;5042495;28;20043;-77
2022/01/13 13:23:33;;;;;;;23.87;10.03;;;;;;;;;;5043720;28;20113;-74
2022/01/13 13:26:14;;;;;;;15.77;8.10;;;;;;;;;;5045297;28;20123;-75
2022/01/13 13:28:48;;;;;;;23.67;9.40;;;;;;;;;;5042299;28;20021;-76
2022/01/13 13:31:33;;;;;;;19.47;9.20;;;;;;;;;;5041612;28;20111;-76
2022/01/13 13:33:59;;;;;;;20.93;9.57;;;;;;;;;;5045692;28;20051;-75
2022/01/13 13:36:28;;;;;;;21.17;9.23;;;;;;;;;;5041825;28;20032;-73
2022/01/13 13:39:08;;;;;;;19.33;10.70;;;;;;;;;;5043005;28;20081;-77
2022/01/13 13:41:40;;;;;;;17.87;9.00;;;;;;;;;;5043382;28;20646;-75
2022/01/13 13:44:08;;;;;;;15.40;8.40;;;;;;;;;;5042573;28;20028;-77
2022/01/13 13:46:34;;;;;;;19.00;9.10;;;;;;;;;;5042226;28;20067;-75
2022/01/13 13:49:00;;;;;;;18.90;8.80;;;;;;;;;;5042436;28;20025;-75
2022/01/13 13:51:29;;;;;;;22.40;11.13;;;;;;;;;;5042732;28;20040;-75
2022/01/13 13:54:17;;;;;;;17.53;9.93;;;;;;;;;;5043189;28;20045;-76
2022/01/13 13:56:53;;;;;;;23.27;10.27;;;;;;;;;;5042973;28;20024;-75
2022/01/13 13:59:42;;;;;;;17.63;8.07;;;;;;;;;;5044093;28;20044;-76
2022/01/13 14:02:11;;;;;;;19.80;10.13;;;;;;;;;;5043875;28;20468;-75
2022/01/13 14:04:43;;;;;;;17.50;8.50;;;;;;;;;;5024358;28;20032;-76
2022/01/13 14:07:44;;;;;;;19.95;9.10;;;;;;;;;;5042858;28;20564;-77
2022/01/13 14:10:25;;;;;;;15.68;7.63;;;;;;;;;;5041743;28;20068;-77
2022/01/13 14:13:01;;;;;;;17.83;7.70;;;;;;;;;;5044878;28;20067;-75
2022/01/13 14:15:37;;;;;;;14.80;7.87;;;;;;;;;;5043136;28;20033;-76
2022/01/13 14:18:12;;;;;;;20.07;9.07;;;;;;;;;;5042736;28;20105;-75
2022/01/13 14:20:49;;;;;;;20.90;9.00;;;;;;;;;;5044874;28;20297;-74
2022/01/13 14:23:38;;;;;;;13.27;8.07;;;;;;;;;;5041706;28;20033;-76
2022/01/13 14:26:04;;;;;;;23.30;8.63;;;;;;;;;;5054646;28;20037;-75
2022/01/13 14:28:31;;;;;;;16.97;9.00;;;;;;;;;;5042521;28;20090;-77
2022/01/13 14:31:06;;;;;;;14.80;8.40;;;;;;;;;;5041764;28;20037;-76
2022/01/13 14:33:49;;;;;;;17.87;9.17;;;;;;;;;;5078952;28;20029;-78
2022/01/13 14:36:23;;;;;;;17.77;8.97;;;;;;;;;;5046776;28;20032;-76
2022/01/13 14:38:52;;;;;;;14.67;8.10;;;;;;;;;;5042100;28;20392;-77
2022/01/13 14:41:37;;;;;;;19.60;9.90;;;;;;;;;;5043405;28;20182;-77
2022/01/13 14:44:07;;;;;;;22.30;8.67;;;;;;;;;;5040426;28;20418;-76
2022/01/13 14:46:39;;;;;;;18.73;9.40;;;;;;;;;;5038197;28;20215;-74
2022/01/13 14:49:05;;;;;;;15.57;8.73;;;;;;;;;;5042857;28;20549;-76
2022/01/13 14:51:32;;;;;;;18.60;10.17;;;;;;;;;;5042016;28;20274;-77
2022/01/13 14:53:59;;;;;;;18.80;8.80;;;;;;;;;;5041933;28;20087;-76
2022/01/13 14:56:25;;;;;;;18.63;9.13;;;;;;;;;;5042163;28;20117;-78
2022/01/13 14:58:52;;;;;;;18.67;8.97;;;;;;;;;;5044068;28;20426;-76
2022/01/13 15:01:19;;;;;;;18.30;9.23;;;;;;;;;;5051842;28;20101;-76
2022/01/13 15:03:45;;;;;;;19.70;8.87;;;;;;;;;;5049162;28;20032;-74
2022/01/13 15:06:12;;;;;;;22.80;11.03;;;;;;;;;;5049002;28;20090;-78